createdAt,value
2019-05-13T00:00:23.354Z,78.22
2019-05-13T00:01:23.278Z,78.33
2019-05-13T00:02:23.575Z,78.33
2019-05-13T00:03:21.280Z,77.91
2019-05-13T00:04:21.268Z,78.53
2019-05-13T00:05:23.294Z,79.26
2019-05-13T00:06:21.244Z,78.99
2019-05-13T00:07:21.230Z,78.67
2019-05-13T00:08:21.918Z,79.19
2019-05-13T00:09:21.208Z,79.40
2019-05-13T00:10:21.198Z,78.88
2019-05-13T00:11:21.187Z,78.67
2019-05-13T00:12:21.172Z,78.99
2019-05-13T00:13:23.567Z,79.81
2019-05-13T00:14:21.149Z,79.13
2019-05-13T00:15:21.139Z,79.95
2019-05-13T00:16:23.359Z,80.26
2019-05-13T00:17:21.116Z,80.88
2019-05-13T00:18:23.313Z,80.78
2019-05-13T00:19:23.209Z,80.57
2019-05-13T00:20:21.084Z,80.68
2019-05-13T00:21:23.112Z,80.47
2019-05-13T00:22:23.374Z,81.61
2019-05-13T00:23:23.253Z,81.51
2019-05-13T00:24:21.037Z,81.71
2019-05-13T00:25:21.024Z,81.51
2019-05-13T00:26:21.012Z,81.40
2019-05-13T00:27:23.090Z,80.99
2019-05-13T00:28:23.120Z,81.09
2019-05-13T00:29:23.329Z,81.20
2019-05-13T00:30:23.409Z,81.54
2019-05-13T00:31:20.957Z,81.96
2019-05-13T00:32:20.943Z,82.79
2019-05-13T00:33:20.934Z,82.68
2019-05-13T00:34:20.921Z,82.17
2019-05-13T00:35:23.170Z,82.27
2019-05-13T00:36:20.900Z,82.48
2019-05-13T00:37:20.886Z,82.06
2019-05-13T00:38:20.877Z,82.27
2019-05-13T00:39:20.865Z,82.51
2019-05-13T00:40:20.872Z,82.48
2019-05-13T00:41:20.842Z,82.31
2019-05-13T00:42:20.833Z,82.27
2019-05-13T00:43:20.820Z,82.72
2019-05-13T00:44:20.808Z,83.14
2019-05-13T00:45:20.815Z,83.14
2019-05-13T00:46:20.786Z,83.28
2019-05-13T00:47:20.777Z,83.69
2019-05-13T00:48:20.761Z,83.90
2019-05-13T00:49:20.753Z,83.80
2019-05-13T00:50:20.757Z,83.69
2019-05-13T00:51:20.726Z,84.31
2019-05-13T00:52:20.717Z,84.94
2019-05-13T00:53:20.704Z,84.83
2019-05-13T00:54:20.710Z,84.52
2019-05-13T00:55:20.682Z,84.73
2019-05-13T00:56:20.671Z,84.73
2019-05-13T00:57:20.659Z,84.94
2019-05-13T00:58:20.653Z,84.94
2019-05-13T00:59:20.662Z,84.73
2019-05-13T01:00:20.628Z,85.14
2019-05-13T01:01:20.618Z,85.29
2019-05-13T01:02:20.609Z,85.04
2019-05-13T01:03:20.595Z,85.19
2019-05-13T01:04:20.582Z,85.08
2019-05-13T01:05:20.589Z,85.25
2019-05-13T01:06:20.558Z,85.50
2019-05-13T01:07:26.001Z,85.29
2019-05-13T01:08:23.484Z,85.87
2019-05-13T01:09:20.524Z,85.29
2019-05-13T01:10:20.534Z,85.91
2019-05-13T01:11:20.502Z,86.12
2019-05-13T01:12:20.490Z,86.12
2019-05-13T01:13:20.480Z,86.54
2019-05-13T01:14:20.469Z,86.12
2019-05-13T01:15:20.475Z,86.74
2019-05-13T01:16:20.444Z,87.78
2019-05-13T01:17:20.434Z,86.64
2019-05-13T01:18:20.430Z,86.54
2019-05-13T01:19:20.411Z,86.54
2019-05-13T01:20:20.420Z,86.43
2019-05-13T01:21:20.389Z,86.22
2019-05-13T01:22:20.376Z,85.60
2019-05-13T01:23:20.366Z,85.60
2019-05-13T01:24:20.356Z,85.60
2019-05-13T01:25:20.365Z,85.60
2019-05-13T01:26:20.332Z,86.05
2019-05-13T01:27:20.319Z,85.74
2019-05-13T01:28:20.309Z,86.16
2019-05-13T01:29:20.296Z,86.36
2019-05-13T01:30:20.285Z,86.61
2019-05-13T01:31:20.294Z,86.57
2019-05-13T01:32:20.265Z,86.82
2019-05-13T01:33:20.253Z,87.65
2019-05-13T01:34:20.239Z,87.86
2019-05-13T01:35:20.227Z,87.24
2019-05-13T01:36:20.236Z,87.76
2019-05-13T01:37:20.208Z,87.76
2019-05-13T01:38:20.194Z,87.96
2019-05-13T01:39:20.185Z,88.10
2019-05-13T01:40:20.173Z,87.76
2019-05-13T01:41:20.179Z,87.96
2019-05-13T01:42:20.149Z,88.38
2019-05-13T01:43:20.138Z,88.48
2019-05-13T01:44:20.128Z,88.48
2019-05-13T01:45:20.115Z,88.28
2019-05-13T01:46:20.124Z,88.38
2019-05-13T01:47:20.093Z,88.07
2019-05-13T01:48:20.082Z,88.21
2019-05-13T01:49:20.070Z,88.00
2019-05-13T01:50:20.057Z,88.00
2019-05-13T01:51:20.046Z,88.31
2019-05-13T01:52:20.053Z,87.90
2019-05-13T01:53:20.025Z,87.69
2019-05-13T01:54:20.014Z,88.21
2019-05-13T01:55:20.002Z,88.21
2019-05-13T01:56:19.990Z,88.62
2019-05-13T01:57:20.000Z,88.94
2019-05-13T01:58:19.968Z,88.84
2019-05-13T01:59:19.957Z,89.29
2019-05-13T02:00:19.955Z,88.94
2019-05-13T02:01:19.931Z,89.25
2019-05-13T02:02:19.940Z,89.15
2019-05-13T02:03:19.909Z,89.36
2019-05-13T02:04:19.897Z,89.15
2019-05-13T02:05:19.887Z,88.94
2019-05-13T02:06:19.877Z,88.84
2019-05-13T02:07:19.891Z,88.94
2019-05-13T02:08:19.852Z,89.25
2019-05-13T02:09:19.842Z,89.15
2019-05-13T02:10:19.830Z,89.04
2019-05-13T02:11:19.820Z,89.39
2019-05-13T02:12:19.807Z,89.15
2019-05-13T02:13:19.816Z,88.77
2019-05-13T02:14:19.786Z,89.18
2019-05-13T02:15:19.773Z,88.87
2019-05-13T02:16:19.762Z,89.39
2019-05-13T02:17:19.750Z,88.98
2019-05-13T02:18:19.760Z,89.08
2019-05-13T02:19:19.727Z,88.35
2019-05-13T02:20:19.715Z,89.18
2019-05-13T02:21:19.706Z,89.23
2019-05-13T02:22:19.697Z,89.43
2019-05-13T02:23:19.704Z,89.64
2019-05-13T02:24:19.671Z,89.64
2019-05-13T02:25:19.660Z,90.06
2019-05-13T02:26:19.650Z,90.33
2019-05-13T02:27:19.637Z,90.06
2019-05-13T02:28:19.650Z,90.23
2019-05-13T02:29:19.617Z,89.81
2019-05-13T02:30:19.602Z,90.16
2019-05-13T02:31:32.025Z,90.06
2019-05-13T02:32:23.468Z,89.85
2019-05-13T02:33:22.910Z,89.95
2019-05-13T02:34:22.981Z,89.64
2019-05-13T02:35:22.981Z,90.47
2019-05-13T02:36:22.720Z,91.00
2019-05-13T02:37:22.919Z,91.00
2019-05-13T02:38:28.376Z,90.89
2019-05-13T02:39:22.368Z,90.79
2019-05-13T02:40:22.526Z,90.69
2019-05-13T02:41:22.569Z,90.89
2019-05-13T02:42:22.638Z,90.79
2019-05-13T02:43:22.747Z,91.10
2019-05-13T02:44:22.369Z,90.93
2019-05-13T02:45:22.543Z,90.93
2019-05-13T02:46:22.380Z,90.62
2019-05-13T02:47:22.405Z,90.93
2019-05-13T02:48:22.881Z,90.83
2019-05-13T02:49:22.883Z,90.72
2019-05-13T02:50:22.370Z,91.14
2019-05-13T02:51:22.712Z,91.14
2019-05-13T02:52:22.265Z,91.25
2019-05-13T02:53:19.345Z,91.14
2019-05-13T02:54:22.716Z,91.14
2019-05-13T02:55:22.176Z,91.25
2019-05-13T02:56:22.391Z,91.25
2019-05-13T02:57:19.297Z,91.35
2019-05-13T02:58:23.616Z,91.52
2019-05-13T02:59:22.710Z,91.46
2019-05-13T03:00:19.289Z,91.46
2019-05-13T03:01:22.089Z,91.14
2019-05-13T03:02:22.197Z,91.35
2019-05-13T03:03:22.693Z,91.14
2019-05-13T03:04:19.217Z,91.50
2019-05-13T03:05:21.866Z,91.39
2019-05-13T03:06:22.146Z,91.18
2019-05-13T03:07:23.000Z,91.08
2019-05-13T03:08:35.212Z,91.08
2019-05-13T03:09:23.008Z,91.04
2019-05-13T03:10:22.205Z,91.08
2019-05-13T03:11:22.502Z,92.12
2019-05-13T03:12:19.123Z,92.49
2019-05-13T03:13:19.126Z,93.12
2019-05-13T03:14:19.104Z,92.70
2019-05-13T03:15:19.095Z,92.70
2019-05-13T03:16:19.121Z,93.01
2019-05-13T03:17:22.070Z,92.70
2019-05-13T03:18:22.304Z,92.60
2019-05-13T03:19:22.188Z,92.18
2019-05-13T03:20:22.388Z,91.87
2019-05-13T03:21:22.903Z,92.49
2019-05-13T03:22:22.149Z,92.12
2019-05-13T03:23:22.447Z,92.74
2019-05-13T03:24:22.395Z,92.08
2019-05-13T03:25:22.232Z,92.33
2019-05-13T03:26:18.968Z,92.33
2019-05-13T03:27:20.689Z,92.33
2019-05-13T03:28:22.297Z,92.22
2019-05-13T03:29:21.972Z,92.54
2019-05-13T03:30:24.451Z,92.54
2019-05-13T03:31:25.621Z,92.54
2019-05-13T03:32:25.736Z,92.74
2019-05-13T03:33:26.821Z,92.91
2019-05-13T03:34:25.535Z,92.49
2019-05-13T03:35:25.778Z,93.12
2019-05-13T03:36:25.289Z,92.74
2019-05-13T03:37:25.516Z,92.85
2019-05-13T03:38:22.533Z,92.95
2019-05-13T03:39:18.821Z,93.16
2019-05-13T03:40:18.808Z,92.99
2019-05-13T03:41:18.813Z,92.79
2019-05-13T03:42:18.784Z,92.47
2019-05-13T03:43:18.789Z,92.06
2019-05-13T03:44:18.774Z,92.27
2019-05-13T03:45:21.803Z,92.37
2019-05-13T03:46:18.739Z,92.00
2019-05-13T03:47:18.726Z,92.06
2019-05-13T03:48:18.731Z,92.16
2019-05-13T03:49:18.701Z,92.52
2019-05-13T03:50:18.691Z,92.10
2019-05-13T03:51:21.944Z,92.47
2019-05-13T03:52:18.670Z,92.16
2019-05-13T03:53:18.673Z,92.21
2019-05-13T03:54:18.644Z,92.79
2019-05-13T03:55:18.633Z,92.31
2019-05-13T03:56:18.626Z,92.62
2019-05-13T03:57:18.623Z,92.47
2019-05-13T03:58:18.688Z,92.21
2019-05-13T03:59:18.599Z,92.31
2019-05-13T04:00:18.575Z,92.52
2019-05-13T04:01:18.583Z,92.72
2019-05-13T04:02:18.560Z,92.52
2019-05-13T04:03:18.582Z,92.41
2019-05-13T04:04:18.538Z,92.62
2019-05-13T04:05:22.446Z,93.04
2019-05-13T04:06:18.512Z,93.35
2019-05-13T04:07:18.503Z,93.24
2019-05-13T04:08:18.495Z,93.04
2019-05-13T04:09:29.639Z,93.35
2019-05-13T04:10:22.428Z,93.24
2019-05-13T04:11:18.452Z,93.46
2019-05-13T04:12:18.444Z,92.89
2019-05-13T04:13:18.433Z,92.72
2019-05-13T04:14:18.449Z,92.83
2019-05-13T04:15:18.403Z,92.93
2019-05-13T04:16:18.403Z,92.83
2019-05-13T04:17:18.396Z,92.83
2019-05-13T04:18:18.372Z,92.93
2019-05-13T04:19:18.376Z,93.04
2019-05-13T04:20:18.367Z,93.66
2019-05-13T04:21:18.340Z,93.31
2019-05-13T04:22:18.324Z,93.52
2019-05-13T04:23:18.330Z,93.48
2019-05-13T04:24:18.316Z,93.93
2019-05-13T04:25:18.309Z,94.14
2019-05-13T04:26:18.289Z,93.79
2019-05-13T04:27:18.270Z,94.31
2019-05-13T04:28:18.256Z,94.31
2019-05-13T04:29:18.246Z,93.99
2019-05-13T04:30:18.251Z,93.79
2019-05-13T04:31:18.222Z,94.41
2019-05-13T04:32:18.209Z,93.89
2019-05-13T04:33:18.200Z,93.99
2019-05-13T04:34:18.187Z,93.85
2019-05-13T04:35:18.195Z,94.47
2019-05-13T04:36:18.165Z,93.89
2019-05-13T04:37:18.155Z,93.43
2019-05-13T04:38:18.143Z,93.12
2019-05-13T04:39:38.966Z,93.05
2019-05-13T04:40:22.627Z,93.27
2019-05-13T04:41:18.110Z,93.54
2019-05-13T04:42:18.105Z,93.23
2019-05-13T04:43:18.086Z,93.27
2019-05-13T04:44:18.076Z,93.23
2019-05-13T04:45:18.085Z,93.16
2019-05-13T04:46:18.053Z,93.43
2019-05-13T04:47:18.039Z,93.12
2019-05-13T04:48:18.029Z,92.70
2019-05-13T04:49:18.019Z,93.12
2019-05-13T04:50:18.006Z,92.97
2019-05-13T04:51:18.029Z,93.29
2019-05-13T04:52:17.983Z,92.66
2019-05-13T04:53:17.968Z,93.29
2019-05-13T04:54:17.965Z,93.12
2019-05-13T04:55:17.950Z,93.07
2019-05-13T04:56:17.962Z,93.55
2019-05-13T04:57:17.929Z,92.97
2019-05-13T04:58:17.915Z,94.07
2019-05-13T04:59:17.903Z,93.93
2019-05-13T05:00:17.897Z,93.41
2019-05-13T05:01:17.920Z,94.13
2019-05-13T05:02:17.883Z,94.03
2019-05-13T05:03:32.993Z,93.99
2019-05-13T05:04:24.456Z,92.84
2019-05-13T05:05:22.207Z,93.68
2019-05-13T05:06:17.825Z,93.22
2019-05-13T05:07:17.833Z,93.47
2019-05-13T05:08:17.804Z,93.01
2019-05-13T05:09:17.789Z,93.12
2019-05-13T05:10:30.533Z,92.97
2019-05-13T05:11:22.012Z,92.66
2019-05-13T05:12:17.775Z,92.55
2019-05-13T05:13:17.745Z,91.78
2019-05-13T05:14:17.732Z,91.85
2019-05-13T05:15:17.720Z,91.95
2019-05-13T05:16:17.721Z,91.08
2019-05-13T05:17:17.731Z,90.87
2019-05-13T05:18:17.691Z,91.08
2019-05-13T05:19:17.676Z,90.93
2019-05-13T05:20:17.673Z,89.69
2019-05-13T05:21:17.649Z,89.44
2019-05-13T05:22:17.670Z,89.65
2019-05-13T05:23:17.626Z,89.54
2019-05-13T05:24:17.617Z,89.75
2019-05-13T05:25:17.606Z,88.71
2019-05-13T05:26:17.594Z,88.82
2019-05-13T05:27:17.626Z,88.61
2019-05-13T05:28:17.573Z,88.67
2019-05-13T05:29:17.559Z,87.64
2019-05-13T05:30:17.546Z,87.95
2019-05-13T05:31:17.535Z,88.06
2019-05-13T05:32:17.525Z,87.91
2019-05-13T05:33:17.532Z,86.91
2019-05-13T05:34:17.503Z,87.49
2019-05-13T05:35:17.498Z,86.94
2019-05-13T05:36:17.479Z,86.01
2019-05-13T05:37:17.487Z,84.87
2019-05-13T05:38:17.461Z,84.87
2019-05-13T05:39:17.444Z,84.83
2019-05-13T05:40:31.014Z,85.00
2019-05-13T05:41:18.425Z,84.69
2019-05-13T05:42:17.451Z,84.69
2019-05-13T05:43:17.400Z,84.13
2019-05-13T05:44:17.388Z,83.51
2019-05-13T05:45:17.388Z,82.48
2019-05-13T05:46:17.369Z,81.21
2019-05-13T05:47:17.374Z,81.41
2019-05-13T05:48:17.345Z,79.86
2019-05-13T05:49:17.332Z,80.65
2019-05-13T05:50:17.322Z,80.96
2019-05-13T05:51:17.310Z,79.38
2019-05-13T05:52:17.315Z,80.93
2019-05-13T05:53:17.286Z,80.37
2019-05-13T05:54:17.274Z,80.37
2019-05-13T05:55:17.262Z,79.14
2019-05-13T05:56:17.251Z,78.58
2019-05-13T05:57:17.268Z,78.58
2019-05-13T05:58:17.281Z,78.14
2019-05-13T05:59:17.217Z,78.24
2019-05-13T06:00:17.220Z,75.42
2019-05-13T06:01:17.193Z,76.56
2019-05-13T06:02:17.180Z,74.91
2019-05-13T06:03:17.193Z,75.52
2019-05-13T06:04:17.159Z,75.59
2019-05-13T06:05:17.148Z,75.35
2019-05-13T06:06:17.136Z,74.95
2019-05-13T06:07:17.124Z,74.43
2019-05-13T06:08:17.890Z,73.98
2019-05-13T06:09:17.107Z,74.46
2019-05-13T06:10:17.100Z,74.36
2019-05-13T06:11:17.076Z,73.13
2019-05-13T06:12:17.065Z,73.50
2019-05-13T06:13:17.078Z,72.99
2019-05-13T06:14:17.049Z,72.03
2019-05-13T06:15:17.031Z,71.72
2019-05-13T06:16:17.020Z,71.62
2019-05-13T06:17:17.010Z,71.55
2019-05-13T06:18:17.018Z,71.45
2019-05-13T06:19:18.006Z,72.14
2019-05-13T06:20:16.976Z,70.36
2019-05-13T06:21:16.969Z,70.26
2019-05-13T06:22:16.961Z,69.64
2019-05-13T06:23:16.962Z,68.92
2019-05-13T06:24:16.930Z,68.68
2019-05-13T06:25:16.919Z,67.70
2019-05-13T06:26:16.908Z,67.19
2019-05-13T06:27:16.901Z,67.57
2019-05-13T06:28:16.901Z,66.92
2019-05-13T06:29:16.907Z,66.78
2019-05-13T06:30:16.863Z,65.12
2019-05-13T06:31:16.849Z,64.13
2019-05-13T06:32:22.480Z,63.59
2019-05-13T06:33:17.862Z,63.89
2019-05-13T06:34:16.814Z,63.45
2019-05-13T06:35:16.800Z,62.81
2019-05-13T06:36:16.789Z,62.81
2019-05-13T06:37:16.777Z,63.22
2019-05-13T06:38:16.764Z,63.12
2019-05-13T06:39:16.776Z,62.85
2019-05-13T06:40:16.742Z,61.97
2019-05-13T06:41:16.730Z,61.63
2019-05-13T06:42:16.725Z,61.32
2019-05-13T06:43:16.708Z,61.40
2019-05-13T06:44:16.714Z,60.76
2019-05-13T06:45:16.685Z,59.17
2019-05-13T06:46:16.677Z,57.72
2019-05-13T06:47:16.661Z,58.13
2019-05-13T06:48:16.648Z,58.20
2019-05-13T06:49:16.679Z,56.82
2019-05-13T06:50:16.626Z,57.13
2019-05-13T06:51:16.618Z,55.60
2019-05-13T06:52:16.605Z,56.90
2019-05-13T06:53:16.592Z,56.01
2019-05-13T06:54:16.583Z,56.60
2019-05-13T06:55:16.591Z,55.12
2019-05-13T06:56:16.557Z,56.37
2019-05-13T06:57:16.546Z,56.88
2019-05-13T06:58:16.537Z,56.12
2019-05-13T06:59:16.528Z,55.88
2019-05-13T07:00:16.531Z,54.84
2019-05-13T07:01:16.500Z,53.91
2019-05-13T07:02:16.487Z,53.88
2019-05-13T07:03:16.476Z,52.46
2019-05-13T07:04:16.464Z,52.44
2019-05-13T07:05:16.473Z,52.08
2019-05-13T07:06:16.442Z,51.09
2019-05-13T07:07:17.489Z,50.38
2019-05-13T07:08:16.419Z,51.62
2019-05-13T07:09:16.407Z,51.07
2019-05-13T07:10:16.416Z,50.34
2019-05-13T07:11:21.073Z,49.62
2019-05-13T07:12:17.400Z,50.43
2019-05-13T07:13:16.363Z,50.31
2019-05-13T07:14:16.351Z,49.19
2019-05-13T07:15:16.359Z,49.83
2019-05-13T07:16:16.326Z,48.99
2019-05-13T07:17:16.316Z,48.31
2019-05-13T07:18:16.503Z,49.44
2019-05-13T07:19:16.294Z,49.85
2019-05-13T07:20:16.301Z,49.67
2019-05-13T07:21:16.271Z,50.46
2019-05-13T07:22:16.257Z,49.87
2019-05-13T07:23:16.247Z,49.85
2019-05-13T07:24:16.233Z,49.83
2019-05-13T07:25:16.240Z,49.38
2019-05-13T07:26:16.209Z,49.25
2019-05-13T07:27:16.200Z,47.36
2019-05-13T07:28:16.197Z,45.48
2019-05-13T07:29:16.610Z,45.24
2019-05-13T07:30:16.198Z,43.88
2019-05-13T07:31:16.156Z,42.98
2019-05-13T07:32:16.144Z,42.52
2019-05-13T07:33:16.142Z,44.02
2019-05-13T07:34:16.123Z,43.28
2019-05-13T07:35:16.122Z,42.05
2019-05-13T07:36:16.113Z,42.35
2019-05-13T07:37:16.084Z,42.52
2019-05-13T07:38:16.073Z,39.36
2019-05-13T07:39:16.063Z,39.58
2019-05-13T07:40:16.072Z,39.25
2019-05-13T07:41:16.060Z,40.42
2019-05-13T07:42:16.032Z,40.41
2019-05-13T07:43:16.017Z,40.75
2019-05-13T07:44:16.006Z,37.48
2019-05-13T07:45:16.006Z,38.33
2019-05-13T07:46:16.004Z,36.61
2019-05-13T07:47:16.207Z,35.78
2019-05-13T07:48:21.330Z,34.88
2019-05-13T07:49:16.951Z,35.13
2019-05-13T07:50:15.938Z,36.13
2019-05-13T07:51:15.958Z,36.13
2019-05-13T07:52:15.917Z,35.80
2019-05-13T07:53:18.977Z,34.36
2019-05-13T07:54:15.894Z,35.56
2019-05-13T07:55:15.880Z,33.83
2019-05-13T07:56:15.870Z,33.42
2019-05-13T07:57:15.878Z,34.16
2019-05-13T07:58:15.849Z,35.61
2019-05-13T07:59:15.838Z,32.97
2019-05-13T08:00:15.826Z,33.52
2019-05-13T08:01:15.814Z,30.51
2019-05-13T08:02:15.822Z,30.94
2019-05-13T08:03:15.792Z,33.42
2019-05-13T08:04:22.254Z,33.38
2019-05-13T08:05:16.772Z,30.79
2019-05-13T08:06:15.762Z,31.90
2019-05-13T08:07:15.768Z,33.16
2019-05-13T08:08:15.739Z,34.05
2019-05-13T08:09:15.730Z,34.41
2019-05-13T08:10:15.715Z,33.98
2019-05-13T08:11:15.706Z,32.34
2019-05-13T08:12:15.871Z,32.69
2019-05-13T08:13:15.696Z,30.47
2019-05-13T08:14:15.673Z,30.90
2019-05-13T08:15:15.693Z,29.80
2019-05-13T08:16:15.652Z,30.00
2019-05-13T08:17:15.874Z,31.99
2019-05-13T08:18:15.688Z,29.07
2019-05-13T08:19:15.619Z,30.68
2019-05-13T08:20:15.608Z,28.66
2019-05-13T08:21:15.597Z,29.83
2019-05-13T08:22:15.610Z,29.21
2019-05-13T08:23:15.576Z,28.39
2019-05-13T08:24:15.562Z,26.46
2019-05-13T08:25:15.555Z,26.04
2019-05-13T08:26:15.542Z,24.77
2019-05-13T08:27:15.533Z,26.97
2019-05-13T08:28:15.540Z,26.73
2019-05-13T08:29:15.511Z,27.60
2019-05-13T08:30:18.073Z,26.54
2019-05-13T08:31:15.492Z,29.36
2019-05-13T08:32:15.483Z,29.24
2019-05-13T08:33:15.496Z,28.92
2019-05-13T08:34:15.460Z,27.11
2019-05-13T08:35:15.451Z,26.23
2019-05-13T08:36:15.439Z,26.54
2019-05-13T08:37:15.426Z,26.74
2019-05-13T08:38:15.436Z,27.09
2019-05-13T08:39:15.409Z,28.79
2019-05-13T08:40:15.397Z,28.35
2019-05-13T08:41:19.384Z,27.81
2019-05-13T08:42:19.840Z,25.70
2019-05-13T08:43:16.444Z,24.08
2019-05-13T08:44:15.352Z,23.03
2019-05-13T08:45:15.343Z,25.19
2019-05-13T08:46:15.334Z,24.57
2019-05-13T08:47:15.322Z,22.75
2019-05-13T08:48:15.312Z,22.42
2019-05-13T08:49:15.321Z,20.64
2019-05-13T08:50:15.291Z,22.50
2019-05-13T08:51:15.282Z,21.14
2019-05-13T08:52:15.317Z,23.31
2019-05-13T08:53:15.263Z,23.93
2019-05-13T08:54:15.269Z,21.46
2019-05-13T08:55:16.243Z,22.26
2019-05-13T08:56:15.231Z,22.41
2019-05-13T08:57:15.221Z,23.58
2019-05-13T08:58:15.211Z,22.67
2019-05-13T08:59:15.220Z,21.67
2019-05-13T09:00:15.187Z,22.36
2019-05-13T09:01:15.178Z,24.82
2019-05-13T09:02:15.171Z,23.93
2019-05-13T09:03:15.165Z,22.34
2019-05-13T09:04:15.190Z,22.05
2019-05-13T09:05:15.141Z,20.95
2019-05-13T09:06:15.130Z,21.44
2019-05-13T09:07:15.120Z,20.62
2019-05-13T09:08:15.108Z,20.83
2019-05-13T09:09:15.097Z,21.53
2019-05-13T09:10:15.108Z,23.09
2019-05-13T09:11:15.077Z,22.60
2019-05-13T09:12:28.694Z,21.31
2019-05-13T09:13:16.055Z,21.89
2019-05-13T09:14:15.049Z,23.45
2019-05-13T09:15:15.060Z,20.50
2019-05-13T09:16:15.027Z,20.18
2019-05-13T09:17:15.019Z,19.10
2019-05-13T09:18:15.029Z,20.76
2019-05-13T09:19:16.215Z,20.28
2019-05-13T09:20:15.008Z,21.06
2019-05-13T09:21:14.982Z,20.47
2019-05-13T09:22:14.974Z,21.26
2019-05-13T09:23:14.958Z,19.49
2019-05-13T09:24:25.401Z,21.06
2019-05-13T09:25:15.970Z,20.07
2019-05-13T09:26:14.932Z,20.10
2019-05-13T09:27:14.922Z,21.42
2019-05-13T09:28:14.912Z,21.17
2019-05-13T09:29:14.901Z,24.33
2019-05-13T09:30:14.893Z,22.35
2019-05-13T09:31:14.903Z,23.33
2019-05-13T09:32:14.883Z,21.75
2019-05-13T09:33:14.866Z,20.17
2019-05-13T09:34:14.853Z,20.45
2019-05-13T09:35:14.847Z,21.12
2019-05-13T09:36:14.852Z,20.01
2019-05-13T09:37:14.825Z,20.92
2019-05-13T09:38:14.837Z,21.70
2019-05-13T09:39:14.810Z,19.65
2019-05-13T09:40:14.796Z,19.90
2019-05-13T09:41:14.807Z,22.17
2019-05-13T09:42:14.775Z,21.10
2019-05-13T09:43:14.766Z,20.61
2019-05-13T09:44:14.756Z,20.50
2019-05-13T09:45:14.744Z,22.35
2019-05-13T09:46:14.754Z,20.75
2019-05-13T09:47:14.726Z,20.23
2019-05-13T09:48:14.713Z,19.13
2019-05-13T09:49:19.653Z,19.32
2019-05-13T09:50:28.482Z,18.44
2019-05-13T09:51:15.708Z,20.34
2019-05-13T09:52:14.676Z,18.65
2019-05-13T09:53:14.667Z,19.51
2019-05-13T09:54:14.658Z,17.76
2019-05-13T09:55:25.295Z,19.00
2019-05-13T09:56:15.660Z,20.03
2019-05-13T09:57:14.628Z,22.19
2019-05-13T09:58:14.619Z,21.69
2019-05-13T09:59:14.610Z,22.46
2019-05-13T10:00:14.612Z,20.57
2019-05-13T10:01:14.589Z,19.19
2019-05-13T10:02:14.622Z,19.59
2019-05-13T10:03:14.573Z,20.37
2019-05-13T10:04:14.555Z,20.35
2019-05-13T10:05:14.556Z,20.04
2019-05-13T10:06:14.537Z,20.01
2019-05-13T10:07:14.550Z,19.08
2019-05-13T10:08:14.520Z,18.23
2019-05-13T10:09:14.508Z,19.65
2019-05-13T10:10:14.499Z,21.22
2019-05-13T10:11:14.490Z,19.62
2019-05-13T10:12:14.499Z,18.90
2019-05-13T10:13:15.665Z,19.48
2019-05-13T10:14:14.466Z,19.37
2019-05-13T10:15:14.449Z,18.46
2019-05-13T10:16:14.438Z,19.14
2019-05-13T10:17:14.431Z,18.75
2019-05-13T10:18:14.438Z,20.21
2019-05-13T10:19:14.407Z,18.46
2019-05-13T10:20:14.401Z,19.65
2019-05-13T10:21:14.389Z,21.51
2019-05-13T10:22:14.380Z,19.04
2019-05-13T10:23:14.385Z,19.53
2019-05-13T10:24:14.361Z,19.13
2019-05-13T10:25:14.349Z,18.54
2019-05-13T10:26:14.693Z,18.94
2019-05-13T10:27:18.631Z,18.65
2019-05-13T10:28:14.337Z,19.25
2019-05-13T10:29:14.314Z,19.53
2019-05-13T10:30:14.301Z,18.92
2019-05-13T10:31:14.289Z,19.70
2019-05-13T10:32:14.286Z,19.31
2019-05-13T10:33:14.297Z,19.49
2019-05-13T10:34:14.370Z,18.52
2019-05-13T10:35:14.249Z,19.49
2019-05-13T10:36:14.239Z,20.79
2019-05-13T10:37:14.230Z,20.22
2019-05-13T10:38:14.229Z,20.01
2019-05-13T10:39:14.228Z,20.80
2019-05-13T10:40:14.200Z,20.10
2019-05-13T10:41:14.190Z,20.41
2019-05-13T10:42:14.179Z,19.22
2019-05-13T10:43:29.351Z,18.23
2019-05-13T10:44:15.177Z,19.42
2019-05-13T10:45:14.193Z,19.44
2019-05-13T10:46:14.142Z,18.25
2019-05-13T10:47:14.139Z,18.46
2019-05-13T10:48:14.121Z,18.96
2019-05-13T10:49:14.132Z,18.88
2019-05-13T10:50:14.101Z,19.38
2019-05-13T10:51:14.092Z,19.57
2019-05-13T10:52:14.081Z,20.45
2019-05-13T10:53:14.072Z,20.14
2019-05-13T10:54:14.080Z,18.07
2019-05-13T10:55:14.064Z,19.10
2019-05-13T10:56:14.044Z,20.11
2019-05-13T10:57:14.043Z,21.59
2019-05-13T10:58:14.044Z,18.90
2019-05-13T10:59:14.030Z,20.49
2019-05-13T11:00:14.001Z,20.28
2019-05-13T11:01:14.006Z,19.29
2019-05-13T11:02:13.992Z,18.70
2019-05-13T11:03:13.968Z,20.28
2019-05-13T11:04:14.092Z,20.26
2019-05-13T11:05:22.833Z,19.87
2019-05-13T11:06:13.941Z,19.68
2019-05-13T11:07:13.928Z,18.11
2019-05-13T11:08:13.917Z,17.02
2019-05-13T11:09:13.930Z,16.35
2019-05-13T11:10:13.897Z,17.76
2019-05-13T11:11:13.886Z,17.68
2019-05-13T11:12:13.877Z,17.56
2019-05-13T11:13:13.868Z,18.08
2019-05-13T11:14:15.797Z,17.59
2019-05-13T11:15:13.849Z,19.55
2019-05-13T11:16:13.837Z,18.65
2019-05-13T11:17:13.857Z,21.02
2019-05-13T11:18:18.962Z,19.04
2019-05-13T11:19:14.828Z,19.40
2019-05-13T11:20:13.799Z,17.91
2019-05-13T11:21:13.789Z,17.71
2019-05-13T11:22:13.780Z,18.98
2019-05-13T11:23:13.769Z,18.88
2019-05-13T11:24:13.777Z,17.90
2019-05-13T11:25:13.815Z,17.52
2019-05-13T11:26:13.739Z,16.71
2019-05-13T11:27:13.732Z,17.13
2019-05-13T11:28:13.721Z,17.68
2019-05-13T11:29:13.727Z,18.10
2019-05-13T11:30:13.700Z,19.78
2019-05-13T11:31:13.689Z,20.25
2019-05-13T11:32:13.692Z,19.05
2019-05-13T11:33:13.671Z,18.44
2019-05-13T11:34:13.676Z,18.73
2019-05-13T11:35:13.650Z,16.64
2019-05-13T11:36:18.924Z,17.82
2019-05-13T11:37:14.651Z,16.73
2019-05-13T11:38:13.617Z,17.41
2019-05-13T11:39:13.631Z,17.41
2019-05-13T11:40:13.596Z,17.90
2019-05-13T11:41:13.585Z,18.39
2019-05-13T11:42:14.038Z,17.10
2019-05-13T11:43:13.563Z,16.02
2019-05-13T11:44:16.636Z,15.63
2019-05-13T11:45:13.564Z,16.36
2019-05-13T11:46:13.534Z,18.37
2019-05-13T11:47:13.522Z,18.46
2019-05-13T11:48:13.510Z,17.76
2019-05-13T11:49:13.501Z,19.51
2019-05-13T11:50:13.508Z,18.44
2019-05-13T11:51:13.557Z,19.23
2019-05-13T11:52:13.472Z,18.44
2019-05-13T11:53:31.403Z,19.12
2019-05-13T11:54:14.447Z,17.71
2019-05-13T11:55:13.459Z,18.00
2019-05-13T11:56:13.428Z,16.41
2019-05-13T11:57:13.418Z,17.69
2019-05-13T11:58:14.103Z,16.90
2019-05-13T11:59:14.188Z,18.08
2019-05-13T12:00:13.766Z,17.99
2019-05-13T12:01:13.391Z,17.40
2019-05-13T12:02:13.993Z,17.29
2019-05-13T12:03:13.355Z,18.77
2019-05-13T12:04:13.342Z,17.21
2019-05-13T12:05:13.331Z,17.14
2019-05-13T12:06:13.436Z,16.74
2019-05-13T12:07:13.679Z,17.81
2019-05-13T12:08:13.300Z,17.11
2019-05-13T12:09:13.520Z,16.52
2019-05-13T12:10:13.281Z,17.49
2019-05-13T12:11:14.029Z,18.39
2019-05-13T12:12:13.903Z,17.50
2019-05-13T12:13:13.247Z,17.80
2019-05-13T12:15:28.965Z,14.74
2019-05-13T12:16:14.238Z,17.89
2019-05-13T12:17:14.227Z,16.03
2019-05-13T12:18:13.193Z,17.91
2019-05-13T12:19:13.184Z,18.21
2019-05-13T12:20:13.173Z,16.52
2019-05-13T12:21:13.160Z,15.63
2019-05-13T12:22:13.442Z,15.23
2019-05-13T12:23:13.235Z,16.35
2019-05-13T12:24:13.131Z,19.00
2019-05-13T12:25:14.039Z,16.74
2019-05-13T12:26:13.177Z,17.33
2019-05-13T12:27:13.119Z,16.54
2019-05-13T12:28:13.089Z,17.82
2019-05-13T12:29:18.589Z,17.61
2019-05-13T12:30:14.102Z,16.83
2019-05-13T12:31:13.057Z,16.42
2019-05-13T12:32:13.775Z,18.39
2019-05-13T12:33:13.661Z,16.92
2019-05-13T12:34:13.398Z,16.05
2019-05-13T12:35:13.471Z,17.63
2019-05-13T12:36:18.069Z,17.44
2019-05-13T12:37:14.010Z,16.29
2019-05-13T12:38:13.537Z,16.98
2019-05-13T12:39:14.299Z,16.47
2019-05-13T12:40:12.967Z,18.73
2019-05-13T12:41:13.206Z,17.94
2019-05-13T12:42:13.022Z,17.04
2019-05-13T12:43:13.490Z,17.06
2019-05-13T12:44:13.198Z,16.98
2019-05-13T12:45:14.244Z,17.78
2019-05-13T12:46:12.910Z,17.57
2019-05-13T12:47:12.908Z,17.66
2019-05-13T12:48:14.017Z,17.07
2019-05-13T12:49:14.226Z,17.55
2019-05-13T12:50:13.853Z,16.75
2019-05-13T12:51:13.406Z,16.36
2019-05-13T12:52:13.389Z,17.14
2019-05-13T12:53:13.040Z,16.49